createdAt,value
2022-09-10T00:00:05.114Z,17.67
2022-09-10T00:02:44.532Z,18.75
2022-09-10T00:05:21.440Z,19.10
2022-09-10T00:07:59.887Z,18.45
2022-09-10T00:10:34.402Z,19.83
2022-09-10T00:13:04.505Z,19.45
2022-09-10T00:15:43.351Z,19.85
2022-09-10T00:18:22.332Z,22.90
2022-09-10T00:20:57.254Z,24.63
2022-09-10T00:23:37.331Z,23.60
2022-09-10T00:26:26.817Z,24.70
2022-09-10T00:29:02.474Z,26.92
2022-09-10T00:31:37.685Z,35.05
2022-09-10T00:34:14.450Z,34.45
2022-09-10T00:36:52.604Z,30.58
2022-09-10T00:39:26.804Z,31.58
2022-09-10T00:41:58.394Z,31.08
2022-09-10T00:44:42.556Z,28.38
2022-09-10T00:47:23.624Z,25.15
2022-09-10T00:50:20.036Z,27.17
2022-09-10T00:52:58.896Z,26.45
2022-09-10T00:55:46.618Z,29.30
2022-09-10T00:58:20.645Z,26.90
2022-09-10T01:00:55.112Z,25.77
2022-09-10T01:03:30.291Z,26.40
2022-09-10T01:06:05.540Z,26.58
2022-09-10T01:08:49.574Z,25.95
2022-09-10T01:11:42.601Z,26.45
2022-09-10T01:14:37.268Z,25.93
2022-09-10T01:17:34.536Z,24.70
2022-09-10T01:20:12.888Z,24.90
2022-09-10T01:23:20.492Z,26.30
2022-09-10T01:26:20.194Z,24.77
2022-09-10T01:29:28.556Z,24.10
2022-09-10T01:32:20.927Z,22.92
2022-09-10T01:35:21.534Z,22.05
2022-09-10T01:37:57.393Z,25.33
2022-09-10T01:40:36.543Z,26.00
2022-09-10T01:43:16.222Z,30.80
2022-09-10T01:46:32.873Z,32.17
2022-09-10T01:49:28.871Z,33.55
2022-09-10T01:52:51.745Z,37.45
2022-09-10T01:55:47.350Z,34.88
2022-09-10T01:58:41.738Z,40.40
2022-09-10T02:02:04.532Z,40.63
2022-09-10T02:04:37.705Z,39.03
2022-09-10T02:07:15.992Z,39.97
2022-09-10T02:09:55.048Z,42.65
2022-09-10T02:12:32.812Z,40.60
2022-09-10T02:15:33.569Z,34.42
2022-09-10T02:18:29.903Z,33.40
2022-09-10T02:21:03.358Z,33.67
2022-09-10T02:24:12.972Z,34.60
2022-09-10T02:26:51.282Z,33.50
2022-09-10T02:29:29.093Z,34.95
2022-09-10T02:32:08.495Z,34.15
2022-09-10T02:34:53.553Z,31.10
2022-09-10T02:37:35.694Z,29.60
2022-09-10T02:40:11.826Z,30.42
2022-09-10T02:42:48.497Z,32.40
2022-09-10T02:45:27.436Z,32.92
2022-09-10T02:48:04.343Z,35.67
2022-09-10T02:50:41.936Z,33.35
2022-09-10T02:53:21.942Z,36.95
2022-09-10T02:56:11.057Z,34.53
2022-09-10T02:58:46.388Z,33.15
2022-09-10T03:01:20.656Z,32.83
2022-09-10T03:04:10.663Z,30.20
2022-09-10T03:06:48.140Z,25.05
2022-09-10T03:09:22.323Z,23.30
2022-09-10T03:12:00.705Z,12.88
2022-09-10T03:14:38.259Z,8.02
2022-09-10T03:17:20.728Z,7.95
2022-09-10T03:19:56.278Z,6.85
2022-09-10T03:22:32.260Z,6.70
2022-09-10T03:25:12.253Z,6.13
2022-09-10T03:27:50.429Z,6.55
2022-09-10T03:30:28.167Z,6.07
2022-09-10T03:32:59.957Z,5.75
2022-09-10T03:35:37.708Z,6.13
2022-09-10T03:38:14.099Z,5.97
2022-09-10T03:40:55.352Z,5.38
2022-09-10T03:43:33.320Z,5.15
2022-09-10T03:46:12.481Z,5.45
2022-09-10T03:48:55.196Z,5.15
2022-09-10T03:51:27.664Z,4.47
2022-09-10T03:54:14.150Z,4.70
2022-09-10T03:56:48.820Z,4.40
2022-09-10T04:02:12.559Z,4.13
2022-09-10T04:04:45.534Z,4.90
2022-09-10T04:07:21.412Z,4.97
2022-09-10T04:10:01.214Z,4.40
2022-09-10T04:12:37.518Z,4.55
2022-09-10T04:15:13.520Z,4.68
2022-09-10T04:17:46.850Z,4.82
2022-09-10T04:20:21.598Z,4.90
2022-09-10T04:22:57.886Z,4.80
2022-09-10T04:25:35.509Z,4.88
2022-09-10T04:28:11.761Z,5.00
2022-09-10T04:30:48.202Z,4.75
2022-09-10T04:33:23.160Z,4.68
2022-09-10T04:36:03.660Z,4.88
2022-09-10T04:38:45.394Z,4.65
2022-09-10T04:44:02.683Z,4.50
2022-09-10T04:46:36.473Z,5.30
2022-09-10T04:49:24.495Z,4.45
2022-09-10T04:51:56.235Z,4.28
2022-09-10T04:54:35.011Z,4.35
2022-09-10T04:57:10.417Z,4.18
2022-09-10T04:59:46.061Z,3.97
2022-09-10T05:02:17.227Z,3.63
2022-09-10T05:04:51.595Z,3.58
2022-09-10T05:07:27.557Z,3.55
2022-09-10T05:10:03.189Z,4.18
2022-09-10T05:12:40.510Z,4.13
2022-09-10T05:15:14.076Z,3.70
2022-09-10T05:17:49.950Z,4.05
2022-09-10T05:20:22.584Z,3.83
2022-09-10T05:23:00.085Z,3.92
2022-09-10T05:25:39.317Z,5.22
2022-09-10T05:28:18.602Z,4.55
2022-09-10T05:30:55.633Z,3.80
2022-09-10T05:33:31.440Z,4.00
2022-09-10T05:38:47.297Z,3.30
2022-09-10T05:41:22.289Z,3.88
2022-09-10T05:43:58.457Z,3.97
2022-09-10T05:46:37.848Z,2.72
2022-09-10T05:49:23.858Z,2.25
2022-09-10T05:51:58.970Z,2.13
2022-09-10T05:54:32.112Z,2.40
2022-09-10T05:57:07.859Z,2.08
2022-09-10T05:59:46.301Z,2.10
2022-09-10T06:02:25.570Z,2.17
2022-09-10T06:05:03.932Z,2.30
2022-09-10T06:07:40.513Z,2.03
2022-09-10T06:10:20.040Z,2.13
2022-09-10T06:12:57.174Z,2.20
2022-09-10T06:15:37.108Z,2.45
2022-09-10T06:18:12.508Z,2.20
2022-09-10T06:20:42.471Z,1.83
2022-09-10T06:23:18.411Z,2.25
2022-09-10T06:26:10.397Z,2.15
2022-09-10T06:28:47.413Z,1.90
2022-09-10T06:31:27.344Z,2.13
2022-09-10T06:34:02.689Z,2.42
2022-09-10T06:36:45.192Z,2.22
2022-09-10T06:39:23.575Z,2.20
2022-09-10T06:42:07.356Z,2.10
2022-09-10T06:45:00.333Z,2.05
2022-09-10T06:51:03.497Z,2.10
2022-09-10T06:53:51.019Z,2.03
2022-09-10T06:56:23.753Z,1.67
2022-09-10T06:59:02.398Z,1.80
2022-09-10T07:01:41.887Z,1.88
2022-09-10T07:06:54.011Z,1.80
2022-09-10T07:09:46.149Z,1.65
2022-09-10T07:12:24.798Z,1.63
2022-09-10T07:15:02.175Z,1.70
2022-09-10T07:17:43.302Z,1.55
2022-09-10T07:20:18.505Z,1.52
2022-09-10T07:23:03.388Z,2.00
2022-09-10T07:25:39.450Z,1.73
2022-09-10T07:28:26.658Z,1.80
2022-09-10T07:31:22.256Z,1.83
2022-09-10T07:33:59.716Z,1.60
2022-09-10T07:36:32.004Z,1.55
2022-09-10T07:41:52.166Z,2.00
2022-09-10T07:44:31.405Z,1.88
2022-09-10T07:47:10.014Z,2.17
2022-09-10T07:49:44.865Z,2.22
2022-09-10T07:52:24.538Z,2.30
2022-09-10T07:55:03.906Z,2.38
2022-09-10T07:57:41.556Z,2.13
2022-09-10T08:00:26.673Z,2.17
2022-09-10T08:03:06.317Z,2.72
2022-09-10T08:05:44.142Z,2.80
2022-09-10T08:08:24.429Z,2.65
2022-09-10T08:10:54.606Z,3.30
2022-09-10T08:13:37.972Z,3.40
2022-09-10T08:19:11.017Z,3.60
2022-09-10T08:21:53.481Z,3.58
2022-09-10T08:24:40.690Z,3.70
2022-09-10T08:27:25.753Z,3.85
2022-09-10T08:30:04.322Z,3.80
2022-09-10T08:32:36.527Z,3.97
2022-09-10T08:35:16.798Z,4.53
2022-09-10T08:37:49.326Z,3.70
2022-09-10T08:40:23.860Z,3.83
2022-09-10T08:43:01.793Z,3.45
2022-09-10T08:45:55.837Z,3.92
2022-09-10T08:48:32.796Z,3.65
2022-09-10T08:51:21.452Z,3.58
2022-09-10T08:53:59.871Z,3.80
2022-09-10T08:56:28.172Z,3.28
2022-09-10T08:59:11.382Z,3.70
2022-09-10T09:01:54.612Z,3.30
2022-09-10T09:04:54.199Z,2.58
2022-09-10T09:07:50.596Z,2.45
2022-09-10T09:10:33.018Z,2.50
2022-09-10T09:13:34.038Z,2.30
2022-09-10T09:16:16.105Z,2.17
2022-09-10T09:19:14.843Z,2.40
2022-09-10T09:21:54.895Z,1.85
2022-09-10T09:25:19.521Z,1.70
2022-09-10T09:27:57.683Z,1.60
2022-09-10T09:30:49.830Z,1.50
2022-09-10T09:33:30.283Z,1.67
2022-09-10T09:36:18.547Z,1.30
2022-09-10T09:38:59.852Z,1.20
2022-09-10T09:41:47.106Z,1.45
2022-09-10T09:44:29.452Z,1.30
2022-09-10T09:47:04.888Z,1.30
2022-09-10T09:49:43.050Z,1.20
2022-09-10T09:52:32.812Z,1.10
2022-09-10T09:55:15.940Z,0.95
2022-09-10T09:58:21.035Z,1.25
2022-09-10T10:01:07.043Z,1.08
2022-09-10T10:03:59.679Z,1.00
2022-09-10T10:06:34.809Z,1.30
2022-09-10T10:09:21.422Z,0.98
2022-09-10T10:12:04.085Z,0.90
2022-09-10T10:14:48.291Z,0.90
2022-09-10T10:17:57.568Z,1.00
2022-09-10T10:20:44.105Z,0.75
2022-09-10T10:23:38.728Z,0.80
2022-09-10T10:26:35.540Z,1.58
2022-09-10T10:29:24.647Z,0.90
2022-09-10T10:32:05.479Z,0.70
2022-09-10T10:35:19.092Z,0.80
2022-09-10T10:38:10.541Z,0.90
2022-09-10T10:41:15.161Z,0.63
2022-09-10T10:44:04.123Z,0.70
2022-09-10T10:47:16.012Z,0.70
2022-09-10T10:50:09.127Z,0.60
2022-09-10T10:53:17.549Z,0.80
2022-09-10T10:56:04.254Z,0.50
2022-09-10T10:58:56.076Z,0.57
2022-09-10T11:01:33.480Z,0.90
2022-09-10T11:04:32.865Z,0.57
2022-09-10T11:07:20.102Z,0.63
2022-09-10T11:10:27.081Z,0.50
2022-09-10T11:13:31.695Z,0.50
2022-09-10T11:16:27.347Z,0.45
2022-09-10T11:19:25.672Z,0.30
2022-09-10T11:22:16.885Z,0.50
2022-09-10T11:25:16.008Z,0.50
2022-09-10T11:28:07.083Z,0.50
2022-09-10T11:30:46.619Z,0.40
2022-09-10T11:33:49.841Z,0.40
2022-09-10T11:36:44.472Z,0.47
2022-09-10T11:39:35.574Z,0.40
2022-09-10T11:42:23.038Z,0.40
2022-09-10T11:45:14.586Z,0.40
2022-09-10T11:48:07.305Z,0.40
2022-09-10T11:50:56.196Z,0.40
2022-09-10T11:53:44.476Z,0.20
2022-09-10T11:56:26.509Z,0.30
2022-09-10T11:59:05.179Z,0.50
2022-09-10T12:02:02.690Z,0.50
2022-09-10T12:05:35.731Z,0.38
2022-09-10T12:11:51.559Z,0.40
2022-09-10T12:14:31.490Z,0.32
2022-09-10T12:17:30.337Z,0.50
2022-09-10T12:20:06.296Z,0.40
2022-09-10T12:22:40.655Z,0.63
2022-09-10T12:25:37.291Z,0.95
2022-09-10T12:28:46.398Z,0.60
2022-09-10T12:31:25.002Z,0.30
2022-09-10T12:34:24.236Z,0.40
2022-09-10T12:37:17.279Z,0.40
2022-09-10T12:40:27.434Z,0.45
2022-09-10T12:43:26.829Z,0.80
2022-09-10T12:46:31.291Z,0.50
2022-09-10T12:49:14.189Z,0.57
2022-09-10T12:51:58.694Z,0.40
2022-09-10T12:54:50.769Z,0.40
2022-09-10T12:57:43.263Z,0.70
2022-09-10T13:00:48.938Z,0.60
2022-09-10T13:03:22.642Z,0.40
2022-09-10T13:06:00.885Z,0.40
2022-09-10T13:08:48.439Z,0.50
2022-09-10T13:11:25.188Z,0.50
2022-09-10T13:14:08.581Z,0.50
2022-09-10T13:16:44.956Z,0.50
2022-09-10T13:19:31.852Z,0.50
2022-09-10T13:22:36.267Z,0.60
2022-09-10T13:25:31.585Z,0.43
2022-09-10T13:28:27.481Z,0.43
2022-09-10T13:31:06.438Z,0.50
2022-09-10T13:34:05.756Z,0.50
2022-09-10T13:37:03.673Z,0.57
2022-09-10T13:39:48.354Z,0.55
2022-09-10T13:42:35.576Z,0.55
2022-09-10T13:45:23.687Z,0.57
2022-09-10T13:48:15.124Z,1.00
2022-09-10T13:51:09.946Z,0.60
2022-09-10T13:53:50.491Z,0.65
2022-09-10T13:56:28.422Z,0.45
2022-09-10T13:59:07.331Z,0.50
2022-09-10T14:01:56.790Z,0.80
2022-09-10T14:04:32.533Z,0.68
2022-09-10T14:07:22.349Z,0.70
2022-09-10T14:09:58.816Z,0.47
2022-09-10T14:12:33.480Z,0.50
2022-09-10T14:15:09.180Z,0.45
2022-09-10T14:17:56.889Z,0.50
2022-09-10T14:20:30.721Z,0.50
2022-09-10T14:23:07.166Z,0.60
2022-09-10T14:25:46.924Z,0.40
2022-09-10T14:28:16.823Z,0.60
2022-09-10T14:31:18.813Z,0.60
2022-09-10T14:33:54.218Z,0.52
2022-09-10T14:36:44.906Z,0.43
2022-09-10T14:39:22.837Z,0.40
2022-09-10T14:42:27.411Z,0.40
2022-09-10T14:45:10.636Z,0.40
2022-09-10T14:47:52.201Z,0.57
2022-09-10T14:50:34.788Z,0.50
2022-09-10T14:53:10.261Z,0.60
2022-09-10T14:55:55.639Z,0.55
2022-09-10T14:58:33.710Z,0.57
2022-09-10T15:01:06.912Z,0.50
2022-09-10T15:03:38.395Z,0.47
2022-09-10T15:06:10.795Z,0.77
2022-09-10T15:08:47.817Z,0.60
2022-09-10T15:11:27.950Z,0.55
2022-09-10T15:14:02.829Z,0.50
2022-09-10T15:16:44.045Z,0.57
2022-09-10T15:19:19.975Z,0.47
2022-09-10T15:21:56.466Z,0.60
2022-09-10T15:24:52.503Z,0.57
2022-09-10T15:27:38.462Z,0.70
2022-09-10T15:30:15.245Z,0.60
2022-09-10T15:32:42.252Z,0.35
2022-09-10T15:35:16.156Z,0.55
2022-09-10T15:37:54.002Z,0.50
2022-09-10T15:40:29.371Z,0.60
2022-09-10T15:43:08.517Z,0.68
2022-09-10T15:45:41.296Z,0.70
2022-09-10T15:48:16.587Z,0.40
2022-09-10T15:51:00.516Z,0.80
2022-09-10T15:53:36.052Z,0.60
2022-09-10T15:56:15.795Z,0.73
2022-09-10T15:58:59.475Z,0.63
2022-09-10T16:01:32.740Z,0.60
2022-09-10T16:04:17.345Z,0.60
2022-09-10T16:06:55.836Z,0.50
2022-09-10T16:09:28.413Z,0.55
2022-09-10T16:12:03.906Z,0.57
2022-09-10T16:14:42.550Z,0.52
2022-09-10T16:17:23.366Z,0.60
2022-09-10T16:19:56.695Z,0.70
2022-09-10T16:22:39.283Z,0.52
2022-09-10T16:25:17.504Z,0.57
2022-09-10T16:27:52.671Z,0.40
2022-09-10T16:30:31.798Z,0.50
2022-09-10T16:33:09.914Z,0.50
2022-09-10T16:35:50.105Z,0.68
2022-09-10T16:38:30.474Z,0.70
2022-09-10T16:41:09.757Z,0.55
2022-09-10T16:43:45.683Z,0.50
2022-09-10T16:46:24.625Z,0.75
2022-09-10T16:48:59.321Z,0.98
2022-09-10T16:51:34.684Z,0.63
2022-09-10T16:54:40.357Z,0.65
2022-09-10T16:57:12.868Z,0.88
2022-09-10T16:59:55.021Z,0.90
2022-09-10T17:02:35.350Z,0.70
2022-09-10T17:05:11.317Z,0.82
2022-09-10T17:07:54.602Z,0.70
2022-09-10T17:10:30.620Z,1.13
2022-09-10T17:13:12.801Z,1.25
2022-09-10T17:16:23.219Z,0.80
2022-09-10T17:19:12.151Z,0.85
2022-09-10T17:21:44.609Z,0.70
2022-09-10T17:24:28.476Z,0.75
2022-09-10T17:27:06.817Z,0.60
2022-09-10T17:29:41.978Z,0.90
2022-09-10T17:32:08.970Z,0.98
2022-09-10T17:34:50.116Z,0.70
2022-09-10T17:37:32.468Z,0.77
2022-09-10T17:40:20.228Z,0.63
2022-09-10T17:42:56.538Z,0.85
2022-09-10T17:45:32.210Z,0.90
2022-09-10T17:48:07.333Z,0.70
2022-09-10T17:50:46.330Z,0.82
2022-09-10T17:53:27.520Z,0.70
2022-09-10T17:56:05.676Z,1.00
2022-09-10T17:58:43.052Z,0.70
2022-09-10T18:01:32.263Z,0.70
2022-09-10T18:04:09.663Z,0.70
2022-09-10T18:06:58.259Z,0.68
2022-09-10T18:09:30.739Z,0.80
2022-09-10T18:12:10.550Z,0.90
2022-09-10T18:14:47.356Z,1.00
2022-09-10T18:17:38.919Z,1.15
2022-09-10T18:20:11.602Z,1.25
2022-09-10T18:22:57.797Z,1.38
2022-09-10T18:25:38.743Z,1.10
2022-09-10T18:28:14.284Z,1.02
2022-09-10T18:30:49.820Z,0.90
2022-09-10T18:33:31.211Z,0.85
2022-09-10T18:36:15.405Z,0.82
2022-09-10T18:38:53.332Z,1.00
2022-09-10T18:41:32.115Z,0.85
2022-09-10T18:44:18.171Z,1.17
2022-09-10T18:47:01.457Z,0.80
2022-09-10T18:49:34.408Z,0.93
2022-09-10T18:52:13.537Z,1.00
2022-09-10T18:54:46.570Z,1.13
2022-09-10T18:57:22.162Z,1.40
2022-09-10T19:00:02.553Z,1.23
2022-09-10T19:02:38.913Z,1.10
2022-09-10T19:05:14.430Z,1.27
2022-09-10T19:07:51.075Z,0.93
2022-09-10T19:10:29.915Z,1.20
2022-09-10T19:13:15.738Z,0.90
2022-09-10T19:18:43.873Z,1.00
2022-09-10T19:21:26.269Z,1.13
2022-09-10T19:24:10.340Z,1.33
2022-09-10T19:26:47.729Z,1.17
2022-09-10T19:29:32.740Z,0.95
2022-09-10T19:32:07.668Z,1.10
2022-09-10T19:34:48.319Z,1.45
2022-09-10T19:37:27.247Z,0.95
2022-09-10T19:40:12.045Z,1.00
2022-09-10T19:42:47.871Z,1.00
2022-09-10T19:45:26.127Z,1.15
2022-09-10T19:48:06.319Z,1.30
2022-09-10T19:50:43.816Z,1.30
2022-09-10T19:53:24.107Z,1.08
2022-09-10T19:56:08.734Z,1.38
2022-09-10T19:58:42.647Z,1.50
2022-09-10T20:01:25.289Z,1.20
2022-09-10T20:04:08.473Z,1.20
2022-09-10T20:06:54.460Z,1.03
2022-09-10T20:09:45.114Z,1.20
2022-09-10T20:12:36.561Z,1.37
2022-09-10T20:15:09.471Z,1.40
2022-09-10T20:17:42.737Z,1.20
2022-09-10T20:20:21.876Z,1.63
2022-09-10T20:23:05.277Z,1.50
2022-09-10T20:25:48.936Z,1.48
2022-09-10T20:28:19.376Z,1.30
2022-09-10T20:31:03.542Z,1.27
2022-09-10T20:33:42.440Z,1.40
2022-09-10T20:36:25.365Z,1.30
2022-09-10T20:39:01.264Z,1.70
2022-09-10T20:41:34.509Z,1.65
2022-09-10T20:44:10.363Z,1.63
2022-09-10T20:46:51.856Z,1.45
2022-09-10T20:49:27.606Z,1.45
2022-09-10T20:52:07.096Z,1.27
2022-09-10T20:54:46.730Z,1.23
2022-09-10T20:57:22.948Z,1.38
2022-09-10T21:00:01.266Z,1.30
2022-09-10T21:02:35.651Z,1.42
2022-09-10T21:05:14.386Z,1.40
2022-09-10T21:07:47.357Z,1.60
2022-09-10T21:10:27.885Z,1.10
2022-09-10T21:13:11.724Z,1.40
2022-09-10T21:18:22.714Z,1.40
2022-09-10T21:21:08.567Z,1.30
2022-09-10T21:23:51.313Z,1.40
2022-09-10T21:26:39.517Z,1.30
2022-09-10T21:29:19.983Z,1.35
2022-09-10T21:32:04.504Z,1.55
2022-09-10T21:34:43.367Z,1.35
2022-09-10T21:37:21.424Z,1.45
2022-09-10T21:39:57.021Z,1.73
2022-09-10T21:42:38.120Z,1.58
2022-09-10T21:45:08.381Z,1.40
2022-09-10T21:47:41.609Z,1.40
2022-09-10T21:50:11.668Z,1.50
2022-09-10T21:52:48.502Z,1.65
2022-09-10T21:55:26.536Z,1.70
2022-09-10T21:58:12.012Z,2.45
2022-09-10T22:00:52.004Z,1.90
2022-09-10T22:03:30.984Z,2.00
2022-09-10T22:06:17.580Z,1.98
2022-09-10T22:08:50.731Z,2.20
2022-09-10T22:11:34.746Z,2.28
2022-09-10T22:16:48.553Z,1.83
2022-09-10T22:19:28.091Z,2.10
2022-09-10T22:22:11.353Z,2.60
2022-09-10T22:24:49.652Z,2.03
2022-09-10T22:30:18.624Z,1.50
2022-09-10T22:32:57.089Z,1.60
2022-09-10T22:35:33.050Z,1.77
2022-09-10T22:38:16.833Z,1.48
2022-09-10T22:40:54.065Z,1.52
2022-09-10T22:43:31.683Z,1.67
2022-09-10T22:46:07.178Z,1.48
2022-09-10T22:48:46.805Z,1.58
2022-09-10T22:51:34.306Z,1.52
2022-09-10T22:54:07.849Z,1.40
2022-09-10T22:56:40.684Z,1.63
2022-09-10T22:59:30.619Z,1.75
2022-09-10T23:02:07.628Z,1.40
2022-09-10T23:04:42.754Z,1.60
2022-09-10T23:09:57.299Z,1.52
2022-09-10T23:12:27.596Z,1.77
2022-09-10T23:15:05.470Z,1.60
2022-09-10T23:17:41.531Z,1.65
2022-09-10T23:20:14.295Z,1.63
2022-09-10T23:22:51.374Z,1.73
2022-09-10T23:25:23.851Z,1.50
2022-09-10T23:27:59.184Z,1.42
2022-09-10T23:30:37.717Z,1.90
2022-09-10T23:33:13.685Z,2.00
2022-09-10T23:35:56.723Z,1.90
2022-09-10T23:38:37.109Z,1.65
2022-09-10T23:41:13.413Z,1.85
2022-09-10T23:43:51.630Z,2.00
2022-09-10T23:46:33.729Z,1.98
2022-09-10T23:49:11.942Z,1.90
2022-09-10T23:51:48.718Z,2.00
2022-09-10T23:54:23.646Z,1.77
2022-09-10T23:57:04.831Z,1.65
2022-09-10T23:59:43.276Z,2.00
